Time;durP1;ratioP1;P1;durP2;ratioP2;P2;SDS_P1;SDS_P2;PMS_P1;PMS_P2;Temp;Humidity;BMP_temperature;BMP_pressure;BME280_temperature;BME280_humidity;BME280_pressure;Samples;Min_cycle;Max_cycle;Signal;HPM_P1;HPM_P2
2021/12/04 00:01:47;;;;;;;4.80;3.05;;;;;;;;;;4879668;29;20058;-76
2021/12/04 00:04:13;;;;;;;4.93;3.13;;;;;;;;;;4879334;29;20044;-77
2021/12/04 00:06:40;;;;;;;3.80;2.30;;;;;;;;;;4879767;29;20032;-78
2021/12/04 00:09:07;;;;;;;3.85;2.33;;;;;;;;;;4879419;29;20027;-77
2021/12/04 00:11:35;;;;;;;3.80;2.65;;;;;;;;;;4879731;29;20476;-76
2021/12/04 00:14:00;;;;;;;2.92;2.08;;;;;;;;;;4878254;29;20480;-77
2021/12/04 00:16:26;;;;;;;4.97;3.20;;;;;;;;;;4869705;29;20018;-76
2021/12/04 09:12:50;;;;;;;5.97;3.58;;;;;;;;;;5032978;23;20280;-78
2021/12/04 09:15:19;;;;;;;5.88;4.22;;;;;;;;;;4862180;29;20124;-77
2021/12/04 09:17:45;;;;;;;5.72;4.05;;;;;;;;;;4845151;29;20038;-77
2021/12/04 09:20:12;;;;;;;5.90;4.05;;;;;;;;;;4850084;29;20438;-78
2021/12/04 09:22:39;;;;;;;6.53;4.30;;;;;;;;;;4863773;29;20078;-79
2021/12/04 09:25:17;;;;;;;6.18;3.80;;;;;;;;;;4863438;29;20481;-79
2021/12/04 09:28:13;;;;;;;4.90;4.07;;;;;;;;;;4846875;29;20041;-81
2021/12/04 10:00:20;;;;;;;7.73;5.87;;;;;;;;;;4863014;29;20037;-78
2021/12/04 10:03:11;;;;;;;8.15;6.50;;;;;;;;;;4862559;29;20120;-78
2021/12/04 10:32:55;;;;;;;8.27;5.38;;;;;;;;;;4843957;29;20098;-77
2021/12/04 10:35:22;;;;;;;7.72;5.30;;;;;;;;;;4843730;29;20404;-78
2021/12/04 10:37:53;;;;;;;8.45;4.90;;;;;;;;;;4843781;29;20033;-78
2021/12/04 10:40:21;;;;;;;6.80;4.57;;;;;;;;;;4843674;29;20034;-77
2021/12/04 10:42:53;;;;;;;5.15;4.20;;;;;;;;;;4843543;29;20030;-78
2021/12/04 10:45:30;;;;;;;5.82;4.15;;;;;;;;;;4843437;29;20173;-77
2021/12/04 10:47:58;;;;;;;5.05;4.35;;;;;;;;;;4843518;29;20534;-78
2021/12/04 10:53:06;;;;;;;6.80;4.60;;;;;;;;;;4846938;29;20021;-78
2021/12/04 10:55:51;;;;;;;6.32;4.05;;;;;;;;;;4861424;29;20491;-76
2021/12/04 11:01:03;;;;;;;6.85;4.55;;;;;;;;;;4861334;29;20029;-78
2021/12/04 11:42:42;;;;;;;6.30;4.45;;;;;;;;;;4843021;29;20053;-80
2021/12/04 11:45:20;;;;;;;9.38;4.78;;;;;;;;;;4850727;29;20093;-81
2021/12/04 11:47:51;;;;;;;7.97;5.32;;;;;;;;;;4861509;29;20499;-79
2021/12/04 11:50:31;;;;;;;9.30;4.78;;;;;;;;;;4862682;29;20040;-79
2021/12/04 11:53:03;;;;;;;6.40;4.70;;;;;;;;;;4862682;29;20034;-78
2021/12/04 11:55:36;;;;;;;8.40;4.53;;;;;;;;;;4845792;29;20038;-78
2021/12/04 11:58:03;;;;;;;8.15;4.32;;;;;;;;;;4861855;29;20033;-78
2021/12/04 12:00:32;;;;;;;6.70;4.15;;;;;;;;;;4861818;29;20037;-78
2021/12/04 12:03:09;;;;;;;7.20;4.32;;;;;;;;;;4861602;29;20037;-78
2021/12/04 12:06:09;;;;;;;7.10;4.70;;;;;;;;;;4861570;29;20040;-80
2021/12/04 12:08:42;;;;;;;7.90;4.80;;;;;;;;;;4831985;29;20105;-80
2021/12/04 12:11:26;;;;;;;6.18;4.72;;;;;;;;;;4860926;29;20029;-79
2021/12/04 12:13:59;;;;;;;8.00;4.85;;;;;;;;;;4861124;29;20037;-82
2021/12/04 12:16:31;;;;;;;5.88;4.68;;;;;;;;;;4860953;29;20082;-82
2021/12/04 12:19:08;;;;;;;7.88;4.82;;;;;;;;;;4861127;29;20032;-81
2021/12/04 12:21:42;;;;;;;7.68;4.45;;;;;;;;;;4860588;29;20106;-82
2021/12/04 12:38:12;;;;;;;6.70;5.28;;;;;;;;;;4861214;29;20063;-81
2021/12/04 12:40:38;;;;;;;6.28;4.95;;;;;;;;;;4861439;29;20033;-90
2021/12/04 12:43:18;;;;;;;7.38;4.90;;;;;;;;;;4863049;29;20033;-92
2021/12/04 12:45:56;;;;;;;7.07;4.50;;;;;;;;;;4846275;29;20438;-92
2021/12/04 12:48:24;;;;;;;7.15;4.75;;;;;;;;;;4849449;29;20026;-86
2021/12/04 12:50:52;;;;;;;8.48;4.68;;;;;;;;;;4866073;29;20025;-87
2021/12/04 12:53:29;;;;;;;6.22;3.95;;;;;;;;;;4848932;29;20030;-88
2021/12/04 12:56:07;;;;;;;5.53;4.55;;;;;;;;;;4848471;29;20029;-89
2021/12/04 12:58:42;;;;;;;6.78;4.68;;;;;;;;;;4848899;29;20400;-90
2021/12/04 13:12:46;;;;;;;4.75;3.30;;;;;;;;;;4844895;29;20056;-88
2021/12/04 13:15:15;;;;;;;4.00;3.17;;;;;;;;;;4865170;29;20053;-89
2021/12/04 13:17:41;;;;;;;4.38;3.47;;;;;;;;;;4847502;29;20025;-87
2021/12/04 13:20:08;;;;;;;5.15;3.13;;;;;;;;;;4847405;29;20046;-87
2021/12/04 13:22:35;;;;;;;5.40;3.83;;;;;;;;;;4864374;29;20074;-85
2021/12/04 13:25:09;;;;;;;5.35;3.67;;;;;;;;;;4847594;29;20041;-87
2021/12/04 13:30:08;;;;;;;4.80;3.22;;;;;;;;;;4864014;29;20384;-89
2021/12/04 13:32:39;;;;;;;4.28;3.10;;;;;;;;;;4864251;29;20030;-86
2021/12/04 13:35:10;;;;;;;5.38;3.35;;;;;;;;;;4864055;29;20026;-87
2021/12/04 13:37:37;;;;;;;4.80;3.20;;;;;;;;;;4864078;29;20021;-87
2021/12/04 13:40:06;;;;;;;5.57;2.72;;;;;;;;;;4846934;29;20025;-85
2021/12/04 13:42:38;;;;;;;3.90;2.63;;;;;;;;;;4863447;29;20113;-87
2021/12/04 13:45:08;;;;;;;5.50;3.40;;;;;;;;;;4846845;29;20622;-86
2021/12/04 13:47:33;;;;;;;4.97;3.22;;;;;;;;;;4862837;29;20178;-86
2021/12/04 13:50:06;;;;;;;3.30;2.92;;;;;;;;;;4863295;29;20062;-86
2021/12/04 13:52:33;;;;;;;5.00;3.50;;;;;;;;;;4863382;29;20029;-86
2021/12/04 13:55:06;;;;;;;5.50;3.47;;;;;;;;;;4846446;29;20049;-86
2021/12/04 13:57:32;;;;;;;4.03;3.40;;;;;;;;;;4846471;29;20112;-85
2021/12/04 13:59:58;;;;;;;4.78;3.88;;;;;;;;;;4846785;29;20032;-86
2021/12/04 14:02:27;;;;;;;5.85;3.67;;;;;;;;;;4863162;29;20033;-85
2021/12/04 14:05:18;;;;;;;6.20;4.13;;;;;;;;;;4846328;29;20044;-85
2021/12/04 14:07:58;;;;;;;5.00;3.53;;;;;;;;;;4852102;29;20041;-85
2021/12/04 14:10:33;;;;;;;6.78;3.90;;;;;;;;;;4846552;29;20025;-89
2021/12/04 14:13:02;;;;;;;6.05;4.22;;;;;;;;;;4862896;29;20053;-86
2021/12/04 14:15:27;;;;;;;6.22;4.55;;;;;;;;;;4863073;29;20037;-87
2021/12/04 14:18:10;;;;;;;5.30;3.38;;;;;;;;;;4862917;29;20024;-83
2021/12/04 14:20:39;;;;;;;6.10;3.63;;;;;;;;;;4843297;29;20030;-84
2021/12/04 14:23:05;;;;;;;4.93;3.38;;;;;;;;;;4843647;29;20030;-86
2021/12/04 14:25:31;;;;;;;4.20;3.45;;;;;;;;;;4827347;29;20034;-84
2021/12/04 14:27:59;;;;;;;4.30;2.95;;;;;;;;;;4845579;29;20026;-82
2021/12/04 14:30:32;;;;;;;4.78;2.95;;;;;;;;;;4843752;29;20029;-83
2021/12/04 14:32:58;;;;;;;4.95;3.50;;;;;;;;;;4843778;29;20065;-80
2021/12/04 14:35:41;;;;;;;5.32;3.88;;;;;;;;;;4843853;29;20603;-80
2021/12/04 14:38:10;;;;;;;4.95;3.72;;;;;;;;;;4843696;29;20078;-80
2021/12/04 14:40:40;;;;;;;5.85;4.25;;;;;;;;;;4843469;29;20033;-80
2021/12/04 14:43:06;;;;;;;;;;;;;;;;;;4843959;29;20499;-80
2021/12/04 14:45:34;;;;;;;7.07;3.85;;;;;;;;;;4843689;29;19942;-82
2021/12/04 18:36:12;;;;;;;9.13;5.80;;;;;;;;;;4828676;29;20049;-85
2021/12/04 18:38:41;;;;;;;7.45;5.78;;;;;;;;;;4861510;29;20041;-88
2021/12/04 18:41:07;;;;;;;11.77;6.32;;;;;;;;;;4862707;29;20502;-90
2021/12/04 18:43:37;;;;;;;10.60;6.10;;;;;;;;;;4862124;29;20430;-88
2021/12/04 18:46:03;;;;;;;10.63;6.15;;;;;;;;;;4861269;29;20037;-82
2021/12/04 18:48:28;;;;;;;9.70;5.78;;;;;;;;;;4861223;29;20028;-83
2021/12/04 18:50:56;;;;;;;9.35;6.10;;;;;;;;;;4862266;29;20062;-83
2021/12/04 18:53:21;;;;;;;9.93;6.50;;;;;;;;;;4862419;29;20034;-84
2021/12/04 18:55:47;;;;;;;7.88;6.32;;;;;;;;;;4862341;29;20380;-82
2021/12/04 18:58:13;;;;;;;9.98;6.38;;;;;;;;;;4862466;29;20021;-87
2021/12/04 19:00:40;;;;;;;8.60;5.60;;;;;;;;;;4862601;29;20041;-82
2021/12/04 19:03:08;;;;;;;11.63;7.47;;;;;;;;;;4862132;29;20396;-87
2021/12/04 19:05:35;;;;;;;11.23;8.25;;;;;;;;;;4861428;29;20037;-85
2021/12/04 19:08:02;;;;;;;13.57;8.35;;;;;;;;;;4862062;29;20085;-87
2021/12/04 19:10:29;;;;;;;12.38;7.38;;;;;;;;;;4862969;29;20026;-83
2021/12/04 19:12:58;;;;;;;9.57;6.70;;;;;;;;;;4860906;29;20540;-84
2021/12/04 19:15:23;;;;;;;10.80;6.25;;;;;;;;;;4862243;29;20073;-82
2021/12/04 19:17:51;;;;;;;10.57;6.10;;;;;;;;;;4860743;29;20033;-82
2021/12/04 19:20:17;;;;;;;8.48;5.57;;;;;;;;;;4860698;29;20017;-87
2021/12/04 19:22:45;;;;;;;9.20;6.07;;;;;;;;;;4860628;29;20437;-83
2021/12/04 19:25:17;;;;;;;8.38;5.78;;;;;;;;;;4862003;29;20036;-82
2021/12/04 19:27:43;;;;;;;7.32;5.38;;;;;;;;;;4861803;29;20084;-82
2021/12/04 19:30:12;;;;;;;10.77;5.18;;;;;;;;;;4866415;29;20388;-83
2021/12/04 19:32:44;;;;;;;9.27;6.63;;;;;;;;;;4861673;29;20029;-86
2021/12/04 19:49:07;;;;;;;14.05;9.77;;;;;;;;;;4862323;29;20040;-87
2021/12/04 19:51:33;;;;;;;14.15;9.02;;;;;;;;;;4861424;29;20418;-87
2021/12/04 19:54:12;;;;;;;14.07;10.10;;;;;;;;;;4861733;29;20034;-85
2021/12/04 19:56:51;;;;;;;14.20;10.40;;;;;;;;;;4861613;29;20109;-84
2021/12/04 19:59:22;;;;;;;14.25;11.02;;;;;;;;;;4860623;29;20022;-85
2021/12/04 20:02:05;;;;;;;17.35;11.60;;;;;;;;;;4860495;29;20068;-87
2021/12/04 20:15:02;;;;;;;14.38;10.55;;;;;;;;;;4862252;29;20051;-86
2021/12/04 20:17:28;;;;;;;14.50;10.45;;;;;;;;;;4862045;29;20053;-88
2021/12/04 20:19:54;;;;;;;13.52;10.23;;;;;;;;;;4860347;29;20490;-87
2021/12/04 20:22:22;;;;;;;16.15;10.48;;;;;;;;;;4861485;29;20029;-89
2021/12/04 20:24:55;;;;;;;15.48;10.75;;;;;;;;;;4860264;29;20033;-86
2021/12/04 20:27:28;;;;;;;14.27;10.50;;;;;;;;;;4860576;29;20057;-88
2021/12/04 20:32:44;;;;;;;17.30;9.48;;;;;;;;;;4861226;29;20396;-88
2021/12/04 21:51:21;;;;;;;11.55;8.50;;;;;;;;;;4882314;29;20036;-89
2021/12/04 21:53:47;;;;;;;10.18;8.40;;;;;;;;;;4865390;29;20033;-89
2021/12/04 21:56:33;;;;;;;10.73;7.45;;;;;;;;;;4865568;29;20033;-89
2021/12/04 22:10:01;;;;;;;13.43;8.90;;;;;;;;;;4881961;29;20068;-90
2021/12/04 22:12:36;;;;;;;12.88;9.10;;;;;;;;;;4882923;29;20149;-84
2021/12/04 22:15:20;;;;;;;13.45;9.55;;;;;;;;;;4866528;29;20116;-90
2021/12/04 22:58:35;;;;;;;13.20;9.07;;;;;;;;;;4881415;29;20040;-86
2021/12/04 23:01:29;;;;;;;12.82;9.40;;;;;;;;;;4880742;29;20025;-85
2021/12/04 23:04:32;;;;;;;13.45;9.23;;;;;;;;;;4864085;29;20029;-88
2021/12/04 23:12:39;;;;;;;20.48;13.57;;;;;;;;;;4881246;29;20044;-84
2021/12/04 23:15:11;;;;;;;19.02;10.80;;;;;;;;;;4863917;29;20123;-88
